Terminal Aerodrome Forecast
Issued by NWS

Home | Current Version | Previous Version | Text Only | Print | Product List | Glossary On
Versions: 1 2 3 4 5 6 7 8 9 10 11 12 13 14 15 16 17 18 19 20 21 22
000
FTUS43 KICT 011025 AAA
TAFCNU
TAF AMD
KCNU 011025Z 0110/0206 VRB03KT 5SM BR OVC018
      TEMPO 0110/0114 2SM -FZDZ BR OVC009
     FM011500 36005KT P6SM SCT020 BKN150
     FM012300 02004KT P6SM SCT150=

USA.gov is the U.S. government's official web portal to all federal, state and local government web resources and services.